METAR AND TAF INFORMATION
METAR FOR ZLLL
ADDS - METARS form results

(2016 UTC 20 September 2018)
Data provider http://aviationweather.gov/metar/data/
 
METAR text: ZLLL 202000Z 36002MPS CAVOK 10/07 Q1025 NOSIG
Conditions at: ZLLL (LANZHOU , CN) observed 2000 UTC 20 September 2018
Temperature: 10.0°C (50°F)
Dewpoint: 7.0°C (45°F) [RH = 82%]
Pressure (altimeter): 30.27 inches Hg (1025.0 mb)
Winds: from the N (360 degrees) at 5 MPH (4 knots; 2.1 m/s)
Visibility: 6 or more miles (10+ km)
Ceiling: ceiling and visibility are OK
Clouds: unknown
Weather: no significant weather observed at this time

Forecast for: ZLLL (LANZHOU , CN)
Text: TAF ZLLL 201501Z 2018/2118 35003MPS 5000 BR NSC TX21/2109Z TN06/2022Z
Forecast period: 1800 UTC 20 September 2018 to 1800 UTC 21 September 2018
Forecast type: FROM: standard forecast or significant change
Winds: from the N (350 degrees) at 7 MPH (6 knots; 3.1 m/s)
Visibility: 3 miles (5 km)
Ceiling: unknown
Clouds: missing
Weather: BR  (mist)

 AIRPORT MAP

 RUNWAY INFORMATION
Runway 18 Runway length 11811 ft Runway width 148 ft
Runway elevation 6388 ft Runway displaced threshold 0 ft Runway heading 177
Runway 36 Runway length 11811 ft Runway width 148 ft
Runway elevation 6329 ft Runway displaced threshold 0 ft Runway heading 357

 AIRPORT FREQUENCIES
Type TWR Name LANZHOU TW Frequency 118.1 MHZ

 AIRPORT NEAR NAVIGATION AIDS
Type NDB Name Zhonghe Frequency 198 KHZ
Type VOR-DME Name Lanzhou Frequency 114300 KHZ